CheckWX is a tool to help pilots better visualize weather data.  It is not intended as a substitute for an official pre-flight weather briefing.

20:31:58 UTC

KOVL METAR
Olivia Regional Airport
Olivia, Minnesota, USA
Current

17 mins ago

KOVL 182015Z AUTO 30006KT 10SM CLR M13/M16 A3049 RMK AO2
Observed
Feb-18 @ 20:15 UTC
Wind
  • 300° at 6 KTS
Visibility
10 SM
Flight Rules
VFR
Cloud Levels
  • Clear skies
Temperature
-13°C / 9°F
Dewpoint
-16°C / 3°F
Humidity
78%
Altimeter
30.49" Hg
Pressure
1032.51 hPa
Previous

36 mins ago

KOVL 181956Z AUTO 31007KT 10SM CLR M13/M16 A3048 RMK AO2
Observed
Feb-18 @ 19:56 UTC
Wind
  • 310° at 7 KTS
Visibility
10 SM
Flight Rules
VFR
Cloud Levels
  • Clear skies
Temperature
-13°C / 9°F
Dewpoint
-16°C / 3°F
Humidity
78%
Altimeter
30.48" Hg
Pressure
1032.21 hPa
Previous

57 mins ago

KOVL 181935Z AUTO 30007KT 7SM CLR M13/M16 A3049 RMK AO2
Observed
Feb-18 @ 19:35 UTC
Wind
  • 300° at 7 KTS
Visibility
7 SM
Flight Rules
VFR
Cloud Levels
  • Clear skies
Temperature
-13°C / 9°F
Dewpoint
-16°C / 3°F
Humidity
78%
Altimeter
30.49" Hg
Pressure
1032.51 hPa